createdAt,value
2022-09-23T00:04:56.281Z,754.52632
2022-09-23T00:09:57.853Z,744
2022-09-23T00:14:59.322Z,765.33333
2022-09-23T00:20:01.092Z,754.52632
2022-09-23T00:25:02.663Z,799.55556
2022-09-23T00:30:04.125Z,765.33333
2022-09-23T00:35:05.845Z,765.33333
2022-09-23T00:40:07.634Z,765.33333
2022-09-23T00:45:09.399Z,754.52632
2022-09-23T00:50:11.456Z,744
2022-09-23T00:55:13.213Z,787.83562
2022-09-23T01:00:15.174Z,776.43243
2022-09-23T01:05:16.864Z,776.43243
2022-09-23T01:10:18.444Z,824
2022-09-23T01:15:19.910Z,799.55556
2022-09-23T01:20:21.563Z,765.33333
2022-09-23T01:25:23.107Z,754.52632
2022-09-23T01:30:24.745Z,799.55556
2022-09-23T01:35:26.296Z,787.83562
2022-09-23T01:40:27.824Z,776.43243
2022-09-23T01:45:29.289Z,787.83562
2022-09-23T01:50:31.131Z,799.55556
2022-09-23T01:55:32.844Z,787.83562
2022-09-23T02:00:34.599Z,799.55556
2022-09-23T02:05:36.125Z,733.74359
2022-09-23T02:10:37.604Z,787.83562
2022-09-23T02:15:39.056Z,704.49383
2022-09-23T02:20:40.817Z,494
2022-09-23T02:25:42.344Z,461.64706
2022-09-23T02:30:43.813Z,400.2963
2022-09-23T02:35:45.262Z,390.37681
2022-09-23T02:40:47.043Z,363.04762
2022-09-23T02:45:48.687Z,326.6087
2022-09-23T02:50:50.581Z,244.4878
2022-09-23T02:55:52.057Z,219
2022-09-23T03:00:53.638Z,211.82609
2022-09-23T03:05:55.144Z,211.82609
2022-09-23T03:10:56.622Z,211.82609
2022-09-23T03:15:58.043Z,209.51724
2022-09-23T03:20:59.731Z,208.37768
2022-09-23T03:26:01.284Z,211.82609
2022-09-23T03:31:03.039Z,207.24786
2022-09-23T03:36:04.761Z,207.24786
2022-09-23T03:41:06.488Z,221.47748
2022-09-23T03:46:08.302Z,225.27854
2022-09-23T03:51:10.383Z,224
2022-09-23T03:56:12.214Z,230.51163
2022-09-23T04:01:14.022Z,237.33333
2022-09-23T04:06:15.894Z,243.02913
2022-09-23T04:11:17.367Z,255.11111
2022-09-23T04:16:19.075Z,259.89744
2022-09-23T04:21:20.798Z,263.17098
2022-09-23T04:26:22.388Z,266.51309
2022-09-23T04:31:23.992Z,268.21053
2022-09-23T04:36:25.799Z,268.21053
2022-09-23T04:41:27.294Z,282.46154
2022-09-23T04:46:29.055Z,290.06742
2022-09-23T04:51:30.718Z,308.49704
2022-09-23T04:56:32.371Z,312.86228
2022-09-23T05:01:34.373Z,344
2022-09-23T05:06:36.325Z,331.42138
2022-09-23T05:11:38.083Z,319.60976
2022-09-23T05:16:39.851Z,315.08434
2022-09-23T05:21:41.978Z,333.87342
2022-09-23T05:26:43.676Z,329
2022-09-23T05:31:45.503Z,331.42138
2022-09-23T05:36:47.330Z,317.33333
2022-09-23T05:41:49.116Z,310.66667
2022-09-23T05:46:51.018Z,315.08434
2022-09-23T05:51:53.027Z,331.42138
2022-09-23T05:56:54.752Z,365.91781
2022-09-23T06:01:56.703Z,377.80282
2022-09-23T06:07:03.098Z,414.22901
2022-09-23T06:12:05.379Z,457.33333
2022-09-23T06:17:07.143Z,479.65217
2022-09-23T06:22:09.102Z,479.65217
2022-09-23T06:27:10.816Z,466.0339
2022-09-23T06:32:12.513Z,489.13274
2022-09-23T06:37:19.426Z,509.13761
2022-09-23T06:42:21.853Z,489.13274
2022-09-23T06:47:23.283Z,489.13274
2022-09-23T06:52:25.656Z,498.95495
2022-09-23T06:57:27.093Z,509.13761
2022-09-23T07:02:28.631Z,525.13208
2022-09-23T07:07:30.414Z,560
2022-09-23T07:12:32.166Z,525.13208
2022-09-23T07:17:33.734Z,553.90099
2022-09-23T07:22:36.256Z,566.22222
2022-09-23T07:27:37.709Z,714
2022-09-23T07:32:47.606Z,849.88235
2022-09-23T07:37:50.556Z,776.43243
2022-09-23T07:42:52.332Z,1128.61538
2022-09-23T07:47:53.877Z,1176
2022-09-23T07:52:55.506Z,1254.6383
2022-09-23T07:57:57.001Z,1227.33333
2022-09-23T08:02:58.587Z,1106.26415
2022-09-23T08:08:00.246Z,1106.26415
2022-09-23T08:13:01.797Z,1044
2022-09-23T08:18:03.199Z,1128.61538
2022-09-23T08:23:05.635Z,1128.61538
2022-09-23T08:28:07.169Z,1106.26415
2022-09-23T08:33:08.933Z,1044
2022-09-23T08:38:10.460Z,1151.84314
2022-09-23T08:43:12.189Z,1084.74074
2022-09-23T08:48:13.635Z,1227.33333
2022-09-23T08:53:16.137Z,1176
2022-09-23T08:58:24.906Z,1312.88889
2022-09-23T09:03:27.321Z,1151.84314
2022-09-23T09:08:29.242Z,1227.33333
2022-09-23T09:13:30.944Z,1106.26415
2022-09-23T09:18:32.672Z,1084.74074
2022-09-23T09:23:34.626Z,1084.74074
2022-09-23T09:28:36.370Z,1024.70175
2022-09-23T09:33:38.102Z,1201.14286
2022-09-23T09:38:39.951Z,1176
2022-09-23T09:43:44.134Z,1201.14286
2022-09-23T09:48:46.170Z,1128.61538
2022-09-23T09:53:48.174Z,1024.70175
2022-09-23T09:58:49.917Z,1106.26415
2022-09-23T10:03:55.553Z,1106.26415
2022-09-23T10:08:59.012Z,1128.61538
2022-09-23T10:14:00.734Z,1283.13043
2022-09-23T10:19:02.492Z,1446.43902
2022-09-23T10:24:05.502Z,1254.6383
2022-09-23T10:29:07.352Z,1201.14286
2022-09-23T10:34:09.166Z,1044
2022-09-23T10:39:10.943Z,1201.14286
2022-09-23T10:44:12.645Z,1176
2022-09-23T10:49:14.404Z,1201.14286
2022-09-23T10:54:16.362Z,1176
2022-09-23T10:59:17.997Z,1227.33333
2022-09-23T11:04:19.517Z,1410.66667
2022-09-23T11:09:21.017Z,1283.13043
2022-09-23T11:14:22.477Z,1151.84314
2022-09-23T11:19:24.068Z,1106.26415
2022-09-23T11:24:26.566Z,1201.14286
2022-09-23T11:29:27.974Z,1106.26415
2022-09-23T11:34:29.398Z,1201.14286
2022-09-23T11:39:30.898Z,1410.66667
2022-09-23T11:44:32.333Z,1227.33333
2022-09-23T11:49:33.781Z,1376.55814
2022-09-23T11:54:35.492Z,1344
2022-09-23T11:59:40.134Z,1410.66667
2022-09-23T12:04:53.379Z,1312.88889
2022-09-23T12:09:58.599Z,1227.33333
2022-09-23T12:15:00.308Z,1283.13043
2022-09-23T12:20:01.930Z,1227.33333
2022-09-23T12:25:04.113Z,1201.14286
2022-09-23T12:30:05.706Z,1227.33333
2022-09-23T12:35:07.285Z,1227.33333
2022-09-23T12:40:08.978Z,1283.13043
2022-09-23T12:45:10.501Z,1344
2022-09-23T12:50:16.646Z,1201.14286
2022-09-23T12:55:19.602Z,1312.88889
2022-09-23T13:00:21.222Z,1312.88889
2022-09-23T13:05:22.725Z,1283.13043
2022-09-23T13:10:24.289Z,1227.33333
2022-09-23T13:15:25.945Z,1227.33333
2022-09-23T13:20:27.407Z,1312.88889
2022-09-23T13:25:29.521Z,1312.88889
2022-09-23T13:30:30.977Z,1128.61538
2022-09-23T13:35:32.532Z,1410.66667
2022-09-23T13:40:34.162Z,1376.55814
2022-09-23T13:45:35.800Z,1312.88889
2022-09-23T13:50:37.601Z,1410.66667
2022-09-23T13:55:39.361Z,1344
2022-09-23T14:00:40.920Z,1344
2022-09-23T14:05:42.589Z,1344
2022-09-23T14:10:44.147Z,1484
2022-09-23T14:15:45.764Z,1376.55814
2022-09-23T14:20:47.512Z,1484
2022-09-23T14:25:49.554Z,1227.33333
2022-09-23T14:30:51.249Z,1484
2022-09-23T14:35:52.969Z,1283.13043
2022-09-23T14:40:54.815Z,1344
2022-09-23T14:45:56.648Z,1283.13043
2022-09-23T14:50:58.466Z,1254.6383
2022-09-23T14:56:01.344Z,1176
2022-09-23T15:01:03.223Z,1254.6383
2022-09-23T15:06:08.457Z,1283.13043
2022-09-23T15:11:10.562Z,1227.33333
2022-09-23T15:16:12.417Z,1283.13043
2022-09-23T15:21:14.244Z,824
2022-09-23T15:26:16.220Z,1106.26415
2022-09-23T15:31:18.041Z,1064
2022-09-23T15:36:19.554Z,863.40299
2022-09-23T15:41:21.213Z,921.77778
2022-09-23T15:46:22.706Z,891.69231
2022-09-23T15:51:24.306Z,877.33333
2022-09-23T15:56:26.101Z,765.33333
2022-09-23T16:01:27.784Z,787.83562
2022-09-23T16:06:29.297Z,787.83562
2022-09-23T16:11:31.177Z,863.40299
2022-09-23T16:16:32.839Z,787.83562
2022-09-23T16:21:34.296Z,836.75362
2022-09-23T16:26:35.961Z,525.13208
2022-09-23T16:31:37.528Z,536.30769
2022-09-23T16:36:39.315Z,494
2022-09-23T16:41:41.109Z,498.95495
2022-09-23T16:46:43.060Z,525.13208
2022-09-23T16:51:44.861Z,400.2963
2022-09-23T16:56:46.799Z,317.33333
2022-09-23T17:01:48.626Z,308.49704
2022-09-23T17:06:50.558Z,319.60976
2022-09-23T17:11:52.406Z,326.6087
2022-09-23T17:16:54.135Z,344
2022-09-23T17:21:55.856Z,319.60976
2022-09-23T17:26:57.867Z,354.66667
2022-09-23T17:31:59.625Z,298.02299
2022-09-23T17:37:01.380Z,304.23392
2022-09-23T17:42:03.337Z,357.42282
2022-09-23T17:47:05.048Z,351.94702
2022-09-23T17:52:06.760Z,365.91781
2022-09-23T17:57:08.703Z,365.91781
2022-09-23T18:02:14.931Z,407.15789
2022-09-23T18:07:17.353Z,221.47748
2022-09-23T18:12:19.215Z,384
2022-09-23T18:17:20.651Z,484.35088
2022-09-23T18:22:22.102Z,393.63504
2022-09-23T18:27:23.994Z,396.94118
2022-09-23T18:32:25.583Z,448.91803
2022-09-23T18:37:27.018Z,461.64706
2022-09-23T18:42:28.780Z,470.49573
2022-09-23T18:47:30.241Z,453.09091
2022-09-23T18:52:31.969Z,444.81301
2022-09-23T18:57:33.943Z,436.8
2022-09-23T19:02:36.095Z,453.09091
2022-09-23T19:07:37.882Z,453.09091
2022-09-23T19:12:39.682Z,453.09091
2022-09-23T19:17:41.331Z,453.09091
2022-09-23T19:22:43.037Z,432.88889
2022-09-23T19:27:44.893Z,448.91803
2022-09-23T19:32:46.694Z,489.13274
2022-09-23T19:37:48.148Z,542.05825
2022-09-23T19:42:50.047Z,504
2022-09-23T19:47:51.701Z,519.70093
2022-09-23T19:52:53.397Z,530.66667
2022-09-23T19:57:55.390Z,514.37037
2022-09-23T20:02:57.089Z,519.70093
2022-09-23T20:07:58.748Z,536.30769
2022-09-23T20:13:00.534Z,547.92157
2022-09-23T20:18:02.277Z,530.66667
2022-09-23T20:23:04.010Z,547.92157
2022-09-23T20:28:05.956Z,599.31915
2022-09-23T20:33:07.587Z,579.05155
2022-09-23T20:38:09.335Z,560
2022-09-23T20:43:11.144Z,530.66667
2022-09-23T20:48:12.988Z,504
2022-09-23T20:53:14.716Z,440.77419
2022-09-23T20:58:16.648Z,384
2022-09-23T21:03:18.353Z,368.82759
2022-09-23T21:08:20.110Z,354.66667
2022-09-23T21:13:21.660Z,351.94702
2022-09-23T21:18:23.131Z,338.87179
2022-09-23T21:23:24.586Z,317.33333
2022-09-23T21:28:26.511Z,315.08434
2022-09-23T21:33:28.040Z,319.60976
2022-09-23T21:38:29.775Z,319.60976
2022-09-23T21:43:31.321Z,333.87342
2022-09-23T21:48:32.761Z,380.87943
2022-09-23T21:53:34.194Z,393.63504
2022-09-23T21:58:36.043Z,390.37681
2022-09-23T22:03:37.577Z,384
2022-09-23T22:08:39.135Z,365.91781
2022-09-23T22:13:40.816Z,360.21622
2022-09-23T22:18:42.550Z,354.66667
2022-09-23T22:23:44.267Z,344
2022-09-23T22:28:46.061Z,331.42138
2022-09-23T22:33:47.529Z,306.35294
2022-09-23T22:38:48.954Z,296
2022-09-23T22:43:50.481Z,304.23392
2022-09-23T22:48:51.881Z,317.33333
2022-09-23T22:53:53.341Z,336.35669
2022-09-23T22:58:55.120Z,357.42282
2022-09-23T23:03:56.673Z,374.76923
2022-09-23T23:08:58.160Z,384
2022-09-23T23:13:59.675Z,384
2022-09-23T23:19:01.337Z,387.16547
2022-09-23T23:24:03.084Z,371.77778
2022-09-23T23:29:04.926Z,363.04762
2022-09-23T23:34:11.454Z,349.26316
2022-09-23T23:39:12.926Z,338.87179
2022-09-23T23:44:14.398Z,349.26316
2022-09-23T23:49:15.869Z,351.94702
2022-09-23T23:54:17.450Z,357.42282
2022-09-23T23:59:19.395Z,360.21622
